Atomic City, Idaho
Current Conditions -  °F | °C
As of 6:53 PM on Wednesday 26 Nov 2014 (Local Time) from KIDA Reporting Station
Broken Clouds Broken Clouds  
Wind Chill: 38°   Ceiling: 20000
Heat Index: 45°   Visibility: 10mi
Dew Point: 33°   Wind: 15mph
Humidity: 63%   Direction: 200°SSW
Pressure: 30.26"   Gusts: NA
Location:  43.44°N, 112.81°W
Report Text: KIDA 270153Z 20013KT 10SM FEW060 SCT120 BKN200 07/01 A3026 RMK AO2 SLPNO T00720006
Loading
Personal Weather Stations






























Interactive Weather Map New forecast layout! Learn more

10-Day Weather Forecast

Advertisements
Track Severe Weather on mobile